sensor_id;sensor_type;location;lat;lon;timestamp;pressure;altitude;pressure_sealevel;temperature;humidity
49947;BME280;35839;48.662;13.300;2023-06-19T05:05:02;97190.97;;;17.05;93.27
49947;BME280;35839;48.662;13.300;2023-06-19T05:07:27;97195.28;;;17.13;92.76
49947;BME280;35839;48.662;13.300;2023-06-19T05:09:52;97200.72;;;17.46;90.28
49947;BME280;35839;48.662;13.300;2023-06-19T05:12:18;97195.88;;;17.56;90.33
49947;BME280;35839;48.662;13.300;2023-06-19T05:14:43;97197.91;;;17.54;90.10
49947;BME280;35839;48.662;13.300;2023-06-19T05:17:08;97215.03;;;17.65;90.04
49947;BME280;35839;48.662;13.300;2023-06-19T05:19:34;97208.34;;;17.76;90.17
49947;BME280;35839;48.662;13.300;2023-06-19T05:21:59;97209.19;;;17.83;90.31
49947;BME280;35839;48.662;13.300;2023-06-19T05:24:25;97212.47;;;17.85;89.35
49947;BME280;35839;48.662;13.300;2023-06-19T05:26:51;97220.41;;;17.85;91.84
49947;BME280;35839;48.662;13.300;2023-06-19T05:29:16;97219.97;;;17.75;90.85
49947;BME280;35839;48.662;13.300;2023-06-19T05:31:41;97220.72;;;17.62;92.53
49947;BME280;35839;48.662;13.300;2023-06-19T05:34:07;97226.75;;;17.84;92.99
49947;BME280;35839;48.662;13.300;2023-06-19T05:36:32;97239.63;;;17.52;93.41
49947;BME280;35839;48.662;13.300;2023-06-19T05:38:57;97233.97;;;17.68;92.31
49947;BME280;35839;48.662;13.300;2023-06-19T05:41:22;97233.03;;;17.83;90.57
49947;BME280;35839;48.662;13.300;2023-06-19T05:43:48;97228.97;;;17.87;92.03
49947;BME280;35839;48.662;13.300;2023-06-19T05:46:13;97227.97;;;17.88;92.88
49947;BME280;35839;48.662;13.300;2023-06-19T05:48:38;97225.94;;;17.83;89.04
49947;BME280;35839;48.662;13.300;2023-06-19T05:51:04;97224.63;;;17.73;84.74
49947;BME280;35839;48.662;13.300;2023-06-19T05:53:29;97224.41;;;17.67;79.63
49947;BME280;35839;48.662;13.300;2023-06-19T05:55:56;97217.16;;;17.83;79.47
49947;BME280;35839;48.662;13.300;2023-06-19T05:58:21;97217.38;;;17.88;78.87
49947;BME280;35839;48.662;13.300;2023-06-19T06:00:47;97213.91;;;17.94;76.96
49947;BME280;35839;48.662;13.300;2023-06-19T06:03:12;97215.13;;;17.85;69.18
49947;BME280;35839;48.662;13.300;2023-06-19T06:05:38;97214.03;;;17.73;66.72
49947;BME280;35839;48.662;13.300;2023-06-19T06:08:03;97217.94;;;17.77;65.06
49947;BME280;35839;48.662;13.300;2023-06-19T06:10:29;97212.81;;;17.68;65.68
49947;BME280;35839;48.662;13.300;2023-06-19T06:12:54;97221.25;;;17.99;64.92
49947;BME280;35839;48.662;13.300;2023-06-19T06:15:19;97213.13;;;18.00;65.02
49947;BME280;35839;48.662;13.300;2023-06-19T06:17:45;97217.84;;;18.18;65.62
49947;BME280;35839;48.662;13.300;2023-06-19T06:20:11;97218.66;;;18.39;65.39
49947;BME280;35839;48.662;13.300;2023-06-19T06:22:38;97235.78;;;18.36;65.61
49947;BME280;35839;48.662;13.300;2023-06-19T06:25:04;97226.81;;;18.24;65.43
49947;BME280;35839;48.662;13.300;2023-06-19T06:27:30;97236.41;;;18.38;65.72
49947;BME280;35839;48.662;13.300;2023-06-19T06:29:55;97236.19;;;18.20;65.69
49947;BME280;35839;48.662;13.300;2023-06-19T06:32:20;97235.97;;;18.15;66.13
49947;BME280;35839;48.662;13.300;2023-06-19T06:34:46;97237.22;;;18.19;65.41
49947;BME280;35839;48.662;13.300;2023-06-19T06:37:11;97254.16;;;18.44;65.28
49947;BME280;35839;48.662;13.300;2023-06-19T06:39:36;97251.69;;;18.23;63.71
49947;BME280;35839;48.662;13.300;2023-06-19T06:42:01;97253.53;;;18.42;64.50
49947;BME280;35839;48.662;13.300;2023-06-19T06:44:27;97258.03;;;18.62;64.86
49947;BME280;35839;48.662;13.300;2023-06-19T06:46:52;97260.47;;;18.70;64.32
49947;BME280;35839;48.662;13.300;2023-06-19T06:49:18;97256.41;;;18.67;64.81
49947;BME280;35839;48.662;13.300;2023-06-19T06:51:43;97257.63;;;18.91;64.56
49947;BME280;35839;48.662;13.300;2023-06-19T06:54:09;97262.94;;;19.05;64.23
49947;BME280;35839;48.662;13.300;2023-06-19T06:56:35;97270.66;;;19.13;64.60
49947;BME280;35839;48.662;13.300;2023-06-19T06:59:00;97276.56;;;19.15;64.62
49947;BME280;35839;48.662;13.300;2023-06-19T07:01:25;97279.84;;;19.24;64.71
49947;BME280;35839;48.662;13.300;2023-06-19T07:03:50;97276.94;;;19.25;64.62
49947;BME280;35839;48.662;13.300;2023-06-19T07:06:16;97283.06;;;19.39;64.76
49947;BME280;35839;48.662;13.300;2023-06-19T07:08:41;97267.81;;;19.08;64.84
49947;BME280;35839;48.662;13.300;2023-06-19T07:11:07;97271.00;;;19.43;64.66
49947;BME280;35839;48.662;13.300;2023-06-19T07:13:33;97273.59;;;19.70;64.68
49947;BME280;35839;48.662;13.300;2023-06-19T07:15:58;97271.31;;;19.80;64.77
49947;BME280;35839;48.662;13.300;2023-06-19T07:18:25;97267.59;;;19.81;64.96
49947;BME280;35839;48.662;13.300;2023-06-19T07:20:51;97277.47;;;20.12;64.27
49947;BME280;35839;48.662;13.300;2023-06-19T07:23:16;97284.97;;;20.22;64.81
49947;BME280;35839;48.662;13.300;2023-06-19T07:25:41;97277.72;;;20.04;64.76
49947;BME280;35839;48.662;13.300;2023-06-19T07:28:07;97278.53;;;20.36;64.73
49947;BME280;35839;48.662;13.300;2023-06-19T07:30:32;97279.63;;;20.29;64.67
49947;BME280;35839;48.662;13.300;2023-06-19T07:32:57;97275.94;;;20.30;64.74
49947;BME280;35839;48.662;13.300;2023-06-19T07:35:23;97277.25;;;20.46;64.50
49947;BME280;35839;48.662;13.300;2023-06-19T07:37:48;97281.47;;;20.85;64.70
49947;BME280;35839;48.662;13.300;2023-06-19T07:40:13;97278.56;;;21.12;64.36
49947;BME280;35839;48.662;13.300;2023-06-19T07:42:39;97273.09;;;21.50;64.13
49947;BME280;35839;48.662;13.300;2023-06-19T07:45:05;97279.28;;;21.81;64.85
49947;BME280;35839;48.662;13.300;2023-06-19T07:47:30;97274.75;;;21.81;70.71
49947;BME280;35839;48.662;13.300;2023-06-19T07:49:55;97270.41;;;21.87;88.00
49947;BME280;35839;48.662;13.300;2023-06-19T07:52:21;97277.34;;;22.18;88.79
49947;BME280;35839;48.662;13.300;2023-06-19T07:54:57;97275.72;;;22.36;86.57
49947;BME280;35839;48.662;13.300;2023-06-19T07:57:25;97272.47;;;22.34;90.94
49947;BME280;35839;48.662;13.300;2023-06-19T07:59:54;97264.59;;;22.39;89.42
49947;BME280;35839;48.662;13.300;2023-06-19T08:02:19;97272.31;;;22.70;91.47
49947;BME280;35839;48.662;13.300;2023-06-19T08:04:46;97272.41;;;22.76;88.99
49947;BME280;35839;48.662;13.300;2023-06-19T08:07:11;97274.53;;;22.97;88.92
49947;BME280;35839;48.662;13.300;2023-06-19T08:09:36;97283.16;;;23.11;86.36
49947;BME280;35839;48.662;13.300;2023-06-19T08:12:02;97280.69;;;23.33;84.96
49947;BME280;35839;48.662;13.300;2023-06-19T08:14:27;97283.25;;;23.28;81.51
49947;BME280;35839;48.662;13.300;2023-06-19T08:16:53;97289.25;;;23.47;82.50
49947;BME280;35839;48.662;13.300;2023-06-19T08:19:18;97288.44;;;23.46;83.83
49947;BME280;35839;48.662;13.300;2023-06-19T08:21:43;97297.13;;;23.77;79.07
49947;BME280;35839;48.662;13.300;2023-06-19T08:24:08;97287.91;;;23.96;78.96
49947;BME280;35839;48.662;13.300;2023-06-19T08:26:34;97292.00;;;24.16;80.19
49947;BME280;35839;48.662;13.300;2023-06-19T08:28:59;97278.72;;;24.21;79.52
49947;BME280;35839;48.662;13.300;2023-06-19T08:31:24;97290.34;;;24.72;76.33
49947;BME280;35839;48.662;13.300;2023-06-19T08:33:56;97291.47;;;24.76;73.81
49947;BME280;35839;48.662;13.300;2023-06-19T08:36:21;97289.69;;;24.65;72.09
49947;BME280;35839;48.662;13.300;2023-06-19T08:38:47;97288.06;;;24.64;69.39
49947;BME280;35839;48.662;13.300;2023-06-19T08:41:17;97288.72;;;24.71;69.39
49947;BME280;35839;48.662;13.300;2023-06-19T08:43:44;97285.94;;;25.00;65.68
49947;BME280;35839;48.662;13.300;2023-06-19T08:46:12;97290.16;;;24.96;68.70
49947;BME280;35839;48.662;13.300;2023-06-19T08:48:38;97286.06;;;24.71;72.02
49947;BME280;35839;48.662;13.300;2023-06-19T08:51:04;97280.44;;;24.90;69.81
49947;BME280;35839;48.662;13.300;2023-06-19T08:53:34;97287.88;;;24.54;69.79
49947;BME280;35839;48.662;13.300;2023-06-19T08:56:00;97289.75;;;24.53;70.36
49947;BME280;35839;48.662;13.300;2023-06-19T08:58:25;97279.38;;;24.28;71.26
49947;BME280;35839;48.662;13.300;2023-06-19T09:00:51;97275.75;;;24.34;70.97
49947;BME280;35839;48.662;13.300;2023-06-19T09:03:20;97277.25;;;24.13;71.66
49947;BME280;35839;48.662;13.300;2023-06-19T09:05:49;97275.47;;;24.19;72.16
49947;BME280;35839;48.662;13.300;2023-06-19T09:08:16;97279.53;;;24.22;73.38
49947;BME280;35839;48.662;13.300;2023-06-19T09:10:41;97269.75;;;24.27;73.57
49947;BME280;35839;48.662;13.300;2023-06-19T09:13:07;97268.16;;;24.14;75.24
49947;BME280;35839;48.662;13.300;2023-06-19T09:15:37;97268.50;;;24.47;73.18
49947;BME280;35839;48.662;13.300;2023-06-19T09:18:04;97271.81;;;24.54;71.93
49947;BME280;35839;48.662;13.300;2023-06-19T09:20:30;97274.25;;;24.89;71.96
49947;BME280;35839;48.662;13.300;2023-06-19T09:22:56;97272.22;;;24.96;70.65
49947;BME280;35839;48.662;13.300;2023-06-19T09:25:21;97272.56;;;24.83;70.82
49947;BME280;35839;48.662;13.300;2023-06-19T09:27:48;97268.81;;;25.01;68.17
49947;BME280;35839;48.662;13.300;2023-06-19T09:30:17;97271.69;;;24.94;68.14
49947;BME280;35839;48.662;13.300;2023-06-19T09:32:42;97271.34;;;24.91;64.29
49947;BME280;35839;48.662;13.300;2023-06-19T09:35:08;97274.09;;;24.96;60.72
49947;BME280;35839;48.662;13.300;2023-06-19T09:37:33;97278.44;;;25.36;60.21
49947;BME280;35839;48.662;13.300;2023-06-19T09:40:03;97274.16;;;26.01;57.43
49947;BME280;35839;48.662;13.300;2023-06-19T09:42:35;97271.59;;;26.38;57.47
49947;BME280;35839;48.662;13.300;2023-06-19T09:45:02;97273.72;;;26.36;58.87
49947;BME280;35839;48.662;13.300;2023-06-19T09:47:47;97271.59;;;26.98;57.55
49947;BME280;35839;48.662;13.300;2023-06-19T09:50:14;97267.38;;;27.12;57.00
49947;BME280;35839;48.662;13.300;2023-06-19T09:52:41;97265.84;;;27.21;55.42
49947;BME280;35839;48.662;13.300;2023-06-19T09:55:08;97272.56;;;27.77;57.28
49947;BME280;35839;48.662;13.300;2023-06-19T09:57:35;97263.50;;;27.93;56.43
49947;BME280;35839;48.662;13.300;2023-06-19T10:00:05;97265.72;;;28.22;54.15
49947;BME280;35839;48.662;13.300;2023-06-19T10:02:48;97269.03;;;28.80;53.43
49947;BME280;35839;48.662;13.300;2023-06-19T10:05:14;97269.50;;;29.33;51.08
49947;BME280;35839;48.662;13.300;2023-06-19T10:07:44;97271.97;;;29.04;45.74
49947;BME280;35839;48.662;13.300;2023-06-19T10:10:12;97270.63;;;29.22;43.10
49947;BME280;35839;48.662;13.300;2023-06-19T10:12:46;97263.75;;;29.66;44.34
49947;BME280;35839;48.662;13.300;2023-06-19T10:15:26;97253.81;;;29.51;46.12
49947;BME280;35839;48.662;13.300;2023-06-19T10:18:02;97264.91;;;29.39;45.73
49947;BME280;35839;48.662;13.300;2023-06-19T10:20:31;97262.81;;;29.96;45.14
49947;BME280;35839;48.662;13.300;2023-06-19T10:23:15;97257.44;;;29.96;47.18
49947;BME280;35839;48.662;13.300;2023-06-19T10:25:59;97254.72;;;29.96;46.51
49947;BME280;35839;48.662;13.300;2023-06-19T10:28:29;97259.03;;;29.97;45.17
49947;BME280;35839;48.662;13.300;2023-06-19T10:31:06;97260.13;;;29.96;45.18
49947;BME280;35839;48.662;13.300;2023-06-19T10:33:33;97257.94;;;30.03;44.81
49947;BME280;35839;48.662;13.300;2023-06-19T10:36:00;97252.03;;;30.40;41.13
49947;BME280;35839;48.662;13.300;2023-06-19T10:38:27;97248.34;;;30.60;41.95
49947;BME280;35839;48.662;13.300;2023-06-19T10:40:52;97249.88;;;29.93;42.84
49947;BME280;35839;48.662;13.300;2023-06-19T10:43:24;97251.47;;;29.24;41.86
49947;BME280;35839;48.662;13.300;2023-06-19T10:45:53;97252.25;;;29.39;41.21
49947;BME280;35839;48.662;13.300;2023-06-19T10:48:23;97253.88;;;29.35;42.00
49947;BME280;35839;48.662;13.300;2023-06-19T10:50:49;97240.84;;;30.13;40.90
49947;BME280;35839;48.662;13.300;2023-06-19T10:53:32;97241.75;;;29.93;41.88
49947;BME280;35839;48.662;13.300;2023-06-19T10:56:01;97245.34;;;30.33;40.64
49947;BME280;35839;48.662;13.300;2023-06-19T10:58:28;97245.50;;;30.81;40.42
49947;BME280;35839;48.662;13.300;2023-06-19T11:00:54;97237.63;;;31.14;39.07
49947;BME280;35839;48.662;13.300;2023-06-19T11:03:20;97232.84;;;31.05;39.81
49947;BME280;35839;48.662;13.300;2023-06-19T11:05:46;97245.47;;;31.39;38.62
49947;BME280;35839;48.662;13.300;2023-06-19T11:08:21;97245.84;;;31.57;39.23
49947;BME280;35839;48.662;13.300;2023-06-19T11:10:47;97245.94;;;31.70;37.72
49947;BME280;35839;48.662;13.300;2023-06-19T11:13:19;97241.34;;;31.71;38.96
49947;BME280;35839;48.662;13.300;2023-06-19T11:15:45;97232.78;;;31.83;38.16
49947;BME280;35839;48.662;13.300;2023-06-19T11:18:14;97231.91;;;31.68;38.30
49947;BME280;35839;48.662;13.300;2023-06-19T11:23:09;97234.94;;;32.43;36.83
49947;BME280;35839;48.662;13.300;2023-06-19T11:25:38;97232.41;;;32.46;37.51
49947;BME280;35839;48.662;13.300;2023-06-19T11:28:10;97231.91;;;32.63;35.23
49947;BME280;35839;48.662;13.300;2023-06-19T11:30:36;97227.69;;;33.04;34.42
49947;BME280;35839;48.662;13.300;2023-06-19T11:33:01;97222.28;;;33.17;33.07
49947;BME280;35839;48.662;13.300;2023-06-19T11:35:33;97222.69;;;33.38;32.78
49947;BME280;35839;48.662;13.300;2023-06-19T11:38:01;97231.56;;;32.84;34.60
49947;BME280;35839;48.662;13.300;2023-06-19T11:40:26;97239.78;;;32.08;31.46
49947;BME280;35839;48.662;13.300;2023-06-19T11:42:54;97238.09;;;31.69;30.57
49947;BME280;35839;48.662;13.300;2023-06-19T11:45:20;97228.78;;;32.18;31.46
49947;BME280;35839;48.662;13.300;2023-06-19T11:47:46;97236.41;;;32.16;32.36
49947;BME280;35839;48.662;13.300;2023-06-19T11:50:13;97236.47;;;30.61;32.20
49947;BME280;35839;48.662;13.300;2023-06-19T11:52:39;97229.34;;;31.29;31.65
49947;BME280;35839;48.662;13.300;2023-06-19T11:55:05;97230.66;;;30.49;32.20
49947;BME280;35839;48.662;13.300;2023-06-19T11:57:30;97220.25;;;31.20;32.86
49947;BME280;35839;48.662;13.300;2023-06-19T11:59:58;97225.44;;;31.64;32.85
49947;BME280;35839;48.662;13.300;2023-06-19T12:02:23;97222.50;;;31.13;31.39
49947;BME280;35839;48.662;13.300;2023-06-19T12:04:48;97225.94;;;30.20;33.39
49947;BME280;35839;48.662;13.300;2023-06-19T12:07:14;97225.91;;;30.31;34.04
49947;BME280;35839;48.662;13.300;2023-06-19T12:09:40;97217.16;;;31.07;32.43
49947;BME280;35839;48.662;13.300;2023-06-19T12:12:07;97225.19;;;31.37;32.14
49947;BME280;35839;48.662;13.300;2023-06-19T12:14:32;97218.50;;;30.76;34.20
49947;BME280;35839;48.662;13.300;2023-06-19T12:16:58;97212.06;;;30.37;36.38
49947;BME280;35839;48.662;13.300;2023-06-19T12:19:23;97219.44;;;30.95;35.84
49947;BME280;35839;48.662;13.300;2023-06-19T12:21:48;97212.22;;;30.56;35.20
49947;BME280;35839;48.662;13.300;2023-06-19T12:24:13;97204.28;;;30.65;35.44
49947;BME280;35839;48.662;13.300;2023-06-19T12:26:39;97198.22;;;31.07;36.06
49947;BME280;35839;48.662;13.300;2023-06-19T12:29:05;97194.25;;;31.24;35.16
49947;BME280;35839;48.662;13.300;2023-06-19T12:31:32;97193.84;;;31.79;35.59
49947;BME280;35839;48.662;13.300;2023-06-19T12:33:58;97187.50;;;32.26;34.82
49947;BME280;35839;48.662;13.300;2023-06-19T12:36:24;97194.25;;;32.10;33.00
49947;BME280;35839;48.662;13.300;2023-06-19T12:38:49;97187.56;;;32.21;33.03
49947;BME280;35839;48.662;13.300;2023-06-19T12:41:15;97189.84;;;32.14;33.11
49947;BME280;35839;48.662;13.300;2023-06-19T12:43:40;97186.13;;;32.10;33.32
49947;BME280;35839;48.662;13.300;2023-06-19T12:46:06;97177.75;;;32.25;33.17
49947;BME280;35839;48.662;13.300;2023-06-19T12:48:32;97182.88;;;31.70;33.22
49947;BME280;35839;48.662;13.300;2023-06-19T12:50:58;97189.59;;;31.73;33.79
49947;BME280;35839;48.662;13.300;2023-06-19T12:53:23;97184.50;;;32.09;32.45
49947;BME280;35839;48.662;13.300;2023-06-19T12:55:52;97182.97;;;31.17;32.73
49947;BME280;35839;48.662;13.300;2023-06-19T12:58:18;97186.34;;;31.27;34.17
49947;BME280;35839;48.662;13.300;2023-06-19T13:00:43;97181.56;;;30.95;34.93
49947;BME280;35839;48.662;13.300;2023-06-19T13:03:09;97180.38;;;31.74;34.44
49947;BME280;35839;48.662;13.300;2023-06-19T13:05:34;97179.84;;;31.53;33.30
49947;BME280;35839;48.662;13.300;2023-06-19T13:07:59;97173.88;;;31.32;33.64
49947;BME280;35839;48.662;13.300;2023-06-19T13:10:25;97171.34;;;30.92;34.27
49947;BME280;35839;48.662;13.300;2023-06-19T13:12:50;97170.25;;;31.17;33.85
49947;BME280;35839;48.662;13.300;2023-06-19T13:15:15;97159.97;;;31.43;34.44
49947;BME280;35839;48.662;13.300;2023-06-19T13:17:41;97165.81;;;31.88;35.81
49947;BME280;35839;48.662;13.300;2023-06-19T13:20:06;97169.56;;;31.74;34.93
49947;BME280;35839;48.662;13.300;2023-06-19T13:22:32;97167.28;;;31.62;35.92
49947;BME280;35839;48.662;13.300;2023-06-19T13:24:57;97169.56;;;31.74;36.66
49947;BME280;35839;48.662;13.300;2023-06-19T13:27:22;97162.91;;;31.66;35.20
49947;BME280;35839;48.662;13.300;2023-06-19T13:29:48;97160.56;;;31.35;34.71
49947;BME280;35839;48.662;13.300;2023-06-19T13:32:13;97169.91;;;31.67;35.96
49947;BME280;35839;48.662;13.300;2023-06-19T13:34:38;97165.47;;;32.14;34.58
49947;BME280;35839;48.662;13.300;2023-06-19T13:37:03;97163.88;;;32.13;35.64
49947;BME280;35839;48.662;13.300;2023-06-19T13:39:29;97163.19;;;32.21;35.68
49947;BME280;35839;48.662;13.300;2023-06-19T13:41:55;97163.72;;;31.66;35.73
49947;BME280;35839;48.662;13.300;2023-06-19T13:44:20;97160.88;;;32.15;35.62
49947;BME280;35839;48.662;13.300;2023-06-19T13:46:46;97158.22;;;31.90;35.16
49947;BME280;35839;48.662;13.300;2023-06-19T13:49:12;97152.44;;;32.16;35.01
49947;BME280;35839;48.662;13.300;2023-06-19T13:51:38;97158.94;;;31.77;36.39
49947;BME280;35839;48.662;13.300;2023-06-19T13:54:04;97164.09;;;31.98;36.15
49947;BME280;35839;48.662;13.300;2023-06-19T13:56:30;97153.91;;;32.08;35.44
49947;BME280;35839;48.662;13.300;2023-06-19T13:58:55;97154.63;;;31.76;35.20
49947;BME280;35839;48.662;13.300;2023-06-19T14:01:20;97145.41;;;31.77;36.09
49947;BME280;35839;48.662;13.300;2023-06-19T14:03:46;97150.25;;;31.42;36.38
49947;BME280;35839;48.662;13.300;2023-06-19T14:06:11;97146.09;;;31.69;36.77
49947;BME280;35839;48.662;13.300;2023-06-19T14:08:37;97146.44;;;31.43;37.07
49947;BME280;35839;48.662;13.300;2023-06-19T14:11:04;97148.50;;;31.70;36.04
49947;BME280;35839;48.662;13.300;2023-06-19T14:13:30;97138.91;;;31.59;35.90
49947;BME280;35839;48.662;13.300;2023-06-19T14:15:55;97149.13;;;31.43;36.34
49947;BME280;35839;48.662;13.300;2023-06-19T14:18:21;97144.75;;;31.23;37.01
49947;BME280;35839;48.662;13.300;2023-06-19T14:20:46;97134.31;;;31.17;36.93
49947;BME280;35839;48.662;13.300;2023-06-19T14:23:12;97130.22;;;31.19;36.81
49947;BME280;35839;48.662;13.300;2023-06-19T14:25:37;97128.78;;;31.03;36.99
49947;BME280;35839;48.662;13.300;2023-06-19T14:28:03;97123.84;;;31.10;37.96
49947;BME280;35839;48.662;13.300;2023-06-19T14:30:29;97124.41;;;31.07;37.19
49947;BME280;35839;48.662;13.300;2023-06-19T14:32:55;97126.06;;;31.27;37.82
49947;BME280;35839;48.662;13.300;2023-06-19T14:35:20;97127.78;;;31.42;37.94
49947;BME280;35839;48.662;13.300;2023-06-19T14:37:45;97123.13;;;31.47;37.70
49947;BME280;35839;48.662;13.300;2023-06-19T14:40:11;97124.34;;;31.55;36.88
49947;BME280;35839;48.662;13.300;2023-06-19T14:42:36;97123.78;;;31.34;37.44
49947;BME280;35839;48.662;13.300;2023-06-19T14:45:02;97123.78;;;31.34;36.99
49947;BME280;35839;48.662;13.300;2023-06-19T14:47:27;97124.81;;;31.38;37.16
49947;BME280;35839;48.662;13.300;2023-06-19T14:49:52;97123.41;;;31.65;36.12
49947;BME280;35839;48.662;13.300;2023-06-19T14:52:19;97122.88;;;31.63;36.25
49947;BME280;35839;48.662;13.300;2023-06-19T14:54:44;97119.22;;;31.54;36.80
49947;BME280;35839;48.662;13.300;2023-06-19T14:57:10;97120.63;;;31.70;37.75
49947;BME280;35839;48.662;13.300;2023-06-19T14:59:35;97114.69;;;31.49;36.25
49947;BME280;35839;48.662;13.300;2023-06-19T15:02:00;97113.69;;;31.45;37.45
49947;BME280;35839;48.662;13.300;2023-06-19T15:04:27;97116.72;;;31.95;36.77
49947;BME280;35839;48.662;13.300;2023-06-19T15:06:53;97130.50;;;31.80;35.27
49947;BME280;35839;48.662;13.300;2023-06-19T15:09:18;97117.41;;;32.06;37.10
49947;BME280;35839;48.662;13.300;2023-06-19T15:11:43;97113.47;;;32.45;34.71
49947;BME280;35839;48.662;13.300;2023-06-19T15:14:09;97112.44;;;32.60;34.26
49947;BME280;35839;48.662;13.300;2023-06-19T15:16:34;97110.41;;;33.48;32.60
49947;BME280;35839;48.662;13.300;2023-06-19T15:18:59;97114.09;;;34.25;31.61
49947;BME280;35839;48.662;13.300;2023-06-19T15:21:24;97109.06;;;35.12;30.99
49947;BME280;35839;48.662;13.300;2023-06-19T15:23:53;97104.00;;;35.37;32.99
49947;BME280;35839;48.662;13.300;2023-06-19T15:26:19;97092.66;;;35.43;30.52
49947;BME280;35839;48.662;13.300;2023-06-19T15:28:45;97097.31;;;35.95;31.12
49947;BME280;35839;48.662;13.300;2023-06-19T15:31:12;97099.81;;;36.44;32.59
49947;BME280;35839;48.662;13.300;2023-06-19T15:33:37;97102.59;;;36.74;30.57
49947;BME280;35839;48.662;13.300;2023-06-19T15:36:03;97093.22;;;36.45;31.72
49947;BME280;35839;48.662;13.300;2023-06-19T15:38:28;97087.59;;;36.59;30.29
49947;BME280;35839;48.662;13.300;2023-06-19T15:40:54;97094.28;;;36.70;27.29
49947;BME280;35839;48.662;13.300;2023-06-19T15:43:19;97088.19;;;36.73;28.87
49947;BME280;35839;48.662;13.300;2023-06-19T15:45:45;97077.97;;;37.71;27.65
49947;BME280;35839;48.662;13.300;2023-06-19T15:48:10;97082.56;;;37.08;26.56
49947;BME280;35839;48.662;13.300;2023-06-19T15:50:35;97079.56;;;36.92;28.08
49947;BME280;35839;48.662;13.300;2023-06-19T15:53:01;97075.34;;;37.03;27.73
49947;BME280;35839;48.662;13.300;2023-06-19T15:55:27;97074.47;;;37.41;29.23
49947;BME280;35839;48.662;13.300;2023-06-19T15:57:53;97066.84;;;37.35;27.34
49947;BME280;35839;48.662;13.300;2023-06-19T16:00:18;97072.94;;;37.02;28.09
49947;BME280;35839;48.662;13.300;2023-06-19T16:02:44;97073.75;;;37.02;27.78
49947;BME280;35839;48.662;13.300;2023-06-19T16:05:12;97068.22;;;36.43;29.21
49947;BME280;35839;48.662;13.300;2023-06-19T16:07:37;97066.00;;;37.13;28.42
49947;BME280;35839;48.662;13.300;2023-06-19T16:10:03;97067.25;;;37.66;27.56
49947;BME280;35839;48.662;13.300;2023-06-19T16:12:28;97077.63;;;37.52;26.76
49947;BME280;35839;48.662;13.300;2023-06-19T16:14:53;97061.91;;;37.70;26.27
49947;BME280;35839;48.662;13.300;2023-06-19T16:17:19;97058.31;;;38.11;29.37
49947;BME280;35839;48.662;13.300;2023-06-19T16:19:44;97061.41;;;37.89;26.33
49947;BME280;35839;48.662;13.300;2023-06-19T16:22:09;97063.78;;;37.57;26.09
49947;BME280;35839;48.662;13.300;2023-06-19T16:24:36;97048.56;;;37.89;27.93
49947;BME280;35839;48.662;13.300;2023-06-19T16:27:03;97059.69;;;37.21;28.45
49947;BME280;35839;48.662;13.300;2023-06-19T16:29:29;97064.75;;;37.73;27.16
49947;BME280;35839;48.662;13.300;2023-06-19T16:31:54;97057.81;;;37.76;26.48
49947;BME280;35839;48.662;13.300;2023-06-19T16:34:19;97062.56;;;37.67;29.01
49947;BME280;35839;48.662;13.300;2023-06-19T16:36:45;97058.75;;;38.01;27.99
49947;BME280;35839;48.662;13.300;2023-06-19T16:39:11;97053.88;;;37.86;28.19
49947;BME280;35839;48.662;13.300;2023-06-19T16:41:39;97058.59;;;37.98;27.01
49947;BME280;35839;48.662;13.300;2023-06-19T16:44:05;97059.81;;;37.46;26.04
49947;BME280;35839;48.662;13.300;2023-06-19T16:46:30;97060.44;;;37.72;25.33
49947;BME280;35839;48.662;13.300;2023-06-19T16:48:55;97057.97;;;37.38;27.04
49947;BME280;35839;48.662;13.300;2023-06-19T16:51:22;97054.59;;;37.95;26.09
49947;BME280;35839;48.662;13.300;2023-06-19T16:53:47;97062.44;;;37.63;26.74
49947;BME280;35839;48.662;13.300;2023-06-19T16:56:13;97052.09;;;37.69;26.21
49947;BME280;35839;48.662;13.300;2023-06-19T16:58:38;97056.50;;;37.40;26.31
49947;BME280;35839;48.662;13.300;2023-06-19T17:01:03;97066.34;;;36.73;28.45
49947;BME280;35839;48.662;13.300;2023-06-19T17:03:29;97059.13;;;36.77;28.20
49947;BME280;35839;48.662;13.300;2023-06-19T17:05:54;97055.44;;;36.73;26.33
49947;BME280;35839;48.662;13.300;2023-06-19T17:08:19;97058.25;;;35.65;27.02
49947;BME280;35839;48.662;13.300;2023-06-19T17:10:45;97063.19;;;35.54;27.11
49947;BME280;35839;48.662;13.300;2023-06-19T17:13:11;97062.78;;;34.95;28.43
49947;BME280;35839;48.662;13.300;2023-06-19T17:15:36;97057.41;;;34.72;28.53
49947;BME280;35839;48.662;13.300;2023-06-19T17:18:03;97062.34;;;33.85;29.38
49947;BME280;35839;48.662;13.300;2023-06-19T17:20:29;97060.03;;;33.20;31.24
49947;BME280;35839;48.662;13.300;2023-06-19T17:22:55;97067.66;;;32.90;36.31
49947;BME280;35839;48.662;13.300;2023-06-19T17:25:21;97062.03;;;32.12;41.22
49947;BME280;35839;48.662;13.300;2023-06-19T17:27:46;97070.16;;;31.41;41.75
49947;BME280;35839;48.662;13.300;2023-06-19T17:30:12;97065.94;;;31.11;46.91
49947;BME280;35839;48.662;13.300;2023-06-19T17:32:39;97066.03;;;31.25;40.37
49947;BME280;35839;48.662;13.300;2023-06-19T17:35:05;97068.56;;;31.40;39.95
49947;BME280;35839;48.662;13.300;2023-06-19T17:37:34;97065.41;;;30.90;40.73
49947;BME280;35839;48.662;13.300;2023-06-19T17:40:01;97072.28;;;31.01;40.51
49947;BME280;35839;48.662;13.300;2023-06-19T17:42:28;97064.34;;;30.62;42.08
49947;BME280;35839;48.662;13.300;2023-06-19T17:44:53;97061.38;;;30.34;48.42
49947;BME280;35839;48.662;13.300;2023-06-19T17:47:18;97068.94;;;30.03;49.11
49947;BME280;35839;48.662;13.300;2023-06-19T17:49:44;97068.47;;;29.96;49.82
49947;BME280;35839;48.662;13.300;2023-06-19T17:52:09;97070.00;;;29.73;47.59